createdAt,value
2024-01-19T00:00:40.077Z,658.00
2024-01-19T00:01:40.108Z,657.00
2024-01-19T00:02:40.215Z,657.00
2024-01-19T00:03:40.234Z,656.00
2024-01-19T00:04:40.257Z,654.00
2024-01-19T00:05:40.372Z,655.00
2024-01-19T00:06:40.407Z,657.00
2024-01-19T00:07:40.448Z,658.00
2024-01-19T00:08:40.473Z,655.00
2024-01-19T00:09:40.501Z,655.00
2024-01-19T00:10:40.570Z,659.00
2024-01-19T00:11:40.637Z,655.00
2024-01-19T00:12:40.721Z,654.00
2024-01-19T00:13:40.718Z,654.00
2024-01-19T00:14:40.764Z,654.00
2024-01-19T00:15:42.958Z,658.00
2024-01-19T00:16:40.956Z,653.00
2024-01-19T00:17:41.087Z,656.00
2024-01-19T00:18:41.050Z,653.00
2024-01-19T00:19:41.091Z,655.00
2024-01-19T00:20:41.154Z,653.00
2024-01-19T00:21:41.136Z,652.00
2024-01-19T00:22:41.201Z,655.00
2024-01-19T00:23:41.280Z,650.00
2024-01-19T00:24:41.311Z,651.00
2024-01-19T00:25:41.333Z,652.00
2024-01-19T00:26:41.414Z,652.00
2024-01-19T00:27:41.429Z,650.00
2024-01-19T00:28:41.478Z,652.00
2024-01-19T00:29:41.546Z,643.00
2024-01-19T00:30:41.577Z,651.00
2024-01-19T00:31:41.615Z,652.00
2024-01-19T00:32:41.787Z,651.00
2024-01-19T00:33:41.817Z,650.00
2024-01-19T00:34:41.816Z,650.00
2024-01-19T00:35:41.842Z,650.00
2024-01-19T00:36:41.873Z,650.00
2024-01-19T00:37:41.902Z,647.00
2024-01-19T00:38:41.989Z,648.00
2024-01-19T00:39:41.994Z,652.00
2024-01-19T00:40:42.051Z,649.00
2024-01-19T00:41:42.128Z,647.00
2024-01-19T00:42:42.132Z,648.00
2024-01-19T00:43:42.166Z,646.00
2024-01-19T00:44:42.232Z,647.00
2024-01-19T00:45:42.249Z,648.00
2024-01-19T00:46:42.312Z,645.00
2024-01-19T00:47:42.408Z,644.00
2024-01-19T00:48:42.453Z,642.00
2024-01-19T00:49:42.466Z,644.00
2024-01-19T00:50:42.586Z,646.00
2024-01-19T00:51:42.501Z,644.00
2024-01-19T00:52:42.534Z,644.00
2024-01-19T00:53:42.598Z,643.00
2024-01-19T00:54:42.625Z,644.00
2024-01-19T00:55:42.664Z,646.00
2024-01-19T00:56:42.757Z,647.00
2024-01-19T00:57:42.769Z,644.00
2024-01-19T00:58:42.781Z,643.00
2024-01-19T00:59:42.848Z,647.00
2024-01-19T01:00:42.951Z,643.00
2024-01-19T01:01:42.921Z,644.00
2024-01-19T01:02:43.041Z,640.00
2024-01-19T01:03:43.009Z,642.00
2024-01-19T01:04:43.018Z,641.00
2024-01-19T01:05:43.126Z,640.00
2024-01-19T01:06:43.243Z,640.00
2024-01-19T01:07:43.124Z,640.00
2024-01-19T01:08:43.148Z,642.00
2024-01-19T01:09:43.195Z,637.00
2024-01-19T01:10:43.215Z,638.00
2024-01-19T01:11:43.314Z,638.00
2024-01-19T01:12:43.286Z,641.00
2024-01-19T01:13:43.325Z,640.00
2024-01-19T01:14:43.385Z,639.00
2024-01-19T01:15:43.426Z,639.00
2024-01-19T01:16:43.435Z,638.00
2024-01-19T01:17:43.515Z,639.00
2024-01-19T01:18:43.553Z,639.00
2024-01-19T01:19:43.607Z,639.00
2024-01-19T01:20:43.607Z,638.00
2024-01-19T01:21:43.639Z,638.00
2024-01-19T01:22:43.643Z,638.00
2024-01-19T01:23:43.741Z,637.00
2024-01-19T01:24:43.707Z,637.00
2024-01-19T01:25:43.751Z,639.00
2024-01-19T01:26:43.791Z,638.00
2024-01-19T01:27:43.813Z,639.00
2024-01-19T01:28:43.838Z,636.00
2024-01-19T01:29:43.905Z,633.00
2024-01-19T01:30:43.951Z,635.00
2024-01-19T01:31:43.934Z,636.00
2024-01-19T01:32:44.093Z,637.00
2024-01-19T01:33:44.122Z,636.00
2024-01-19T01:34:44.070Z,637.00
2024-01-19T01:35:44.111Z,638.00
2024-01-19T01:36:44.119Z,635.00
2024-01-19T01:37:44.148Z,633.00
2024-01-19T01:38:44.214Z,635.00
2024-01-19T01:39:44.235Z,635.00
2024-01-19T01:40:44.263Z,628.00
2024-01-19T01:41:44.305Z,632.00
2024-01-19T01:42:44.334Z,633.00
2024-01-19T01:43:44.359Z,631.00
2024-01-19T01:44:44.470Z,636.00
2024-01-19T01:45:44.450Z,631.00
2024-01-19T01:46:47.854Z,636.00
2024-01-19T01:47:44.567Z,636.00
2024-01-19T01:48:44.635Z,636.00
2024-01-19T01:49:44.587Z,633.00
2024-01-19T01:50:44.530Z,633.00
2024-01-19T01:51:44.485Z,631.00
2024-01-19T01:52:44.479Z,629.00
2024-01-19T01:53:44.498Z,633.00
2024-01-19T01:54:44.473Z,632.00
2024-01-19T01:55:44.491Z,631.00
2024-01-19T01:56:44.509Z,628.00
2024-01-19T01:57:44.520Z,630.00
2024-01-19T01:58:44.489Z,630.00
2024-01-19T01:59:44.490Z,631.00
2024-01-19T02:00:44.669Z,630.00
2024-01-19T02:01:44.495Z,628.00
2024-01-19T02:02:44.573Z,627.00
2024-01-19T02:03:44.501Z,629.00
2024-01-19T02:04:44.526Z,625.00
2024-01-19T02:05:44.667Z,628.00
2024-01-19T02:07:06.847Z,624.00
2024-01-19T02:07:44.651Z,625.00
2024-01-19T02:08:44.552Z,627.00
2024-01-19T02:09:44.536Z,629.00
2024-01-19T02:10:44.506Z,631.00
2024-01-19T02:11:44.541Z,635.00
2024-01-19T02:12:44.506Z,631.00
2024-01-19T02:13:44.511Z,633.00
2024-01-19T02:14:44.548Z,631.00
2024-01-19T02:15:44.515Z,631.00
2024-01-19T02:16:44.526Z,628.00
2024-01-19T02:17:44.636Z,625.00
2024-01-19T02:18:44.652Z,627.00
2024-01-19T02:19:44.542Z,627.00
2024-01-19T02:20:44.526Z,630.00
2024-01-19T02:21:44.530Z,629.00
2024-01-19T02:22:44.542Z,626.00
2024-01-19T02:23:44.573Z,626.00
2024-01-19T02:24:44.524Z,624.00
2024-01-19T02:25:44.540Z,627.00
2024-01-19T02:26:44.575Z,621.00
2024-01-19T02:27:44.529Z,624.00
2024-01-19T02:28:44.550Z,623.00
2024-01-19T02:29:44.576Z,622.00
2024-01-19T02:30:44.565Z,623.00
2024-01-19T02:31:44.566Z,623.00
2024-01-19T02:32:44.716Z,624.00
2024-01-19T02:33:44.633Z,623.00
2024-01-19T02:34:44.718Z,624.00
2024-01-19T02:35:44.735Z,621.00
2024-01-19T02:36:44.732Z,623.00
2024-01-19T02:37:44.769Z,619.00
2024-01-19T02:38:44.788Z,618.00
2024-01-19T02:39:44.817Z,621.00
2024-01-19T02:40:45.189Z,621.00
2024-01-19T02:41:44.906Z,621.00
2024-01-19T02:42:44.923Z,619.00
2024-01-19T02:43:44.940Z,616.00
2024-01-19T02:44:45.052Z,621.00
2024-01-19T02:45:45.018Z,619.00
2024-01-19T02:46:45.036Z,619.00
2024-01-19T02:47:45.185Z,618.00
2024-01-19T02:48:45.247Z,618.00
2024-01-19T02:49:45.159Z,620.00
2024-01-19T02:50:45.212Z,617.00
2024-01-19T02:51:45.221Z,617.00
2024-01-19T02:52:45.265Z,619.00
2024-01-19T02:53:45.354Z,614.00
2024-01-19T02:54:45.316Z,615.00
2024-01-19T02:55:45.389Z,616.00
2024-01-19T02:56:45.402Z,617.00
2024-01-19T02:57:45.427Z,615.00
2024-01-19T02:58:45.453Z,615.00
2024-01-19T02:59:45.514Z,617.00
2024-01-19T03:00:45.624Z,619.00
2024-01-19T03:01:45.573Z,616.00
2024-01-19T03:02:45.628Z,614.00
2024-01-19T03:03:45.643Z,612.00
2024-01-19T03:04:45.721Z,616.00
2024-01-19T03:05:45.790Z,614.00
2024-01-19T03:06:45.873Z,616.00
2024-01-19T03:07:45.772Z,615.00
2024-01-19T03:08:45.831Z,613.00
2024-01-19T03:09:45.841Z,614.00
2024-01-19T03:10:45.894Z,617.00
2024-01-19T03:11:45.915Z,612.00
2024-01-19T03:12:45.928Z,613.00
2024-01-19T03:13:45.947Z,616.00
2024-01-19T03:14:46.006Z,612.00
2024-01-19T03:15:46.029Z,611.00
2024-01-19T03:16:46.068Z,611.00
2024-01-19T03:17:46.139Z,612.00
2024-01-19T03:18:46.099Z,614.00
2024-01-19T03:19:46.252Z,613.00
2024-01-19T03:20:46.221Z,616.00
2024-01-19T03:21:46.234Z,609.00
2024-01-19T03:22:46.240Z,610.00
2024-01-19T03:23:46.264Z,611.00
2024-01-19T03:24:46.287Z,611.00
2024-01-19T03:25:46.318Z,613.00
2024-01-19T03:26:46.376Z,609.00
2024-01-19T03:27:46.391Z,613.00
2024-01-19T03:28:46.414Z,610.00
2024-01-19T03:29:46.479Z,610.00
2024-01-19T03:30:46.503Z,608.00
2024-01-19T03:31:46.533Z,608.00
2024-01-19T03:32:46.622Z,608.00
2024-01-19T03:33:46.633Z,606.00
2024-01-19T03:34:46.618Z,608.00
2024-01-19T03:35:46.680Z,610.00
2024-01-19T03:36:46.671Z,603.00
2024-01-19T03:37:46.685Z,608.00
2024-01-19T03:38:46.734Z,606.00
2024-01-19T03:39:46.733Z,605.00
2024-01-19T03:40:46.772Z,606.00
2024-01-19T03:41:46.805Z,604.00
2024-01-19T03:42:46.820Z,605.00
2024-01-19T03:43:46.842Z,606.00
2024-01-19T03:44:46.938Z,604.00
2024-01-19T03:45:46.884Z,608.00
2024-01-19T03:46:46.927Z,607.00
2024-01-19T03:47:47.047Z,606.00
2024-01-19T03:48:47.001Z,604.00
2024-01-19T03:49:47.049Z,606.00
2024-01-19T03:50:47.078Z,606.00
2024-01-19T03:51:47.073Z,605.00
2024-01-19T03:52:47.096Z,604.00
2024-01-19T03:53:47.180Z,605.00
2024-01-19T03:54:47.137Z,606.00
2024-01-19T03:55:47.176Z,604.00
2024-01-19T03:56:47.199Z,602.00
2024-01-19T03:57:47.224Z,605.00
2024-01-19T03:58:47.255Z,604.00
2024-01-19T03:59:47.306Z,607.00
2024-01-19T04:00:47.337Z,601.00
2024-01-19T04:01:47.327Z,605.00
2024-01-19T04:02:47.594Z,606.00
2024-01-19T04:03:47.539Z,607.00
2024-01-19T04:04:47.485Z,606.00
2024-01-19T04:05:47.481Z,604.00
2024-01-19T04:06:47.496Z,608.00
2024-01-19T04:07:47.496Z,607.00
2024-01-19T04:08:47.544Z,605.00
2024-01-19T04:09:47.545Z,607.00
2024-01-19T04:10:47.563Z,606.00
2024-01-19T04:11:47.607Z,600.00
2024-01-19T04:12:47.641Z,604.00
2024-01-19T04:13:47.646Z,605.00
2024-01-19T04:14:47.693Z,608.00
2024-01-19T04:15:47.681Z,605.00
2024-01-19T04:16:47.709Z,604.00
2024-01-19T04:17:47.842Z,607.00
2024-01-19T04:18:47.958Z,609.00
2024-01-19T04:19:47.814Z,605.00
2024-01-19T04:20:47.823Z,606.00
2024-01-19T04:21:47.803Z,607.00
2024-01-19T04:22:47.836Z,604.00
2024-01-19T04:23:55.064Z,600.00
2024-01-19T04:24:55.068Z,600.00
2024-01-19T04:25:55.053Z,600.00
2024-01-19T04:26:55.134Z,600.00
2024-01-19T04:27:55.034Z,600.00
2024-01-19T04:28:55.036Z,600.00
2024-01-19T04:29:55.058Z,603.00
2024-01-19T04:30:55.043Z,605.00
2024-01-19T04:32:02.242Z,600.00
2024-01-19T04:33:02.364Z,600.00
2024-01-19T04:34:02.316Z,600.00
2024-01-19T04:35:02.245Z,600.00
2024-01-19T04:36:02.357Z,600.00
2024-01-19T04:37:02.263Z,600.00
2024-01-19T04:38:02.246Z,606.00
2024-01-19T04:39:02.286Z,604.00
2024-01-19T04:40:02.247Z,602.00
2024-01-19T04:41:02.368Z,601.00
2024-01-19T04:42:02.266Z,605.00
2024-01-19T04:43:02.255Z,608.00
2024-01-19T04:44:02.269Z,600.00
2024-01-19T04:45:02.321Z,609.00
2024-01-19T04:46:02.273Z,606.00
2024-01-19T04:47:02.305Z,605.00
2024-01-19T04:48:02.325Z,608.00
2024-01-19T04:49:02.387Z,607.00
2024-01-19T04:50:02.262Z,605.00
2024-01-19T04:51:02.317Z,607.00
2024-01-19T04:52:02.267Z,605.00
2024-01-19T04:53:02.254Z,604.00
2024-01-19T04:54:02.284Z,610.00
2024-01-19T04:55:02.290Z,611.00
2024-01-19T04:56:02.261Z,610.00
2024-01-19T04:57:02.313Z,603.00
2024-01-19T04:58:02.265Z,610.00
2024-01-19T04:59:02.269Z,607.00
2024-01-19T05:00:02.474Z,605.00
2024-01-19T05:01:02.324Z,610.00
2024-01-19T05:02:02.292Z,610.00
2024-01-19T05:03:02.400Z,605.00
2024-01-19T05:04:02.268Z,611.00
2024-01-19T05:05:02.308Z,610.00
2024-01-19T05:06:02.360Z,602.00
2024-01-19T05:07:02.269Z,605.00
2024-01-19T05:08:02.273Z,607.00
2024-01-19T05:09:02.318Z,606.00
2024-01-19T05:10:02.305Z,610.00
2024-01-19T05:11:02.279Z,605.00
2024-01-19T05:12:02.333Z,609.00
2024-01-19T05:13:02.283Z,612.00
2024-01-19T05:14:02.285Z,614.00
2024-01-19T05:15:02.369Z,605.00
2024-01-19T05:16:02.286Z,615.00
2024-01-19T05:17:02.311Z,612.00
2024-01-19T05:18:02.320Z,611.00
2024-01-19T05:19:02.290Z,614.00
2024-01-19T05:20:02.352Z,611.00
2024-01-19T05:21:02.313Z,612.00
2024-01-19T05:22:02.313Z,616.00
2024-01-19T05:23:02.351Z,611.00
2024-01-19T05:24:02.335Z,615.00
2024-01-19T05:25:02.316Z,614.00
2024-01-19T05:26:02.332Z,606.00
2024-01-19T05:27:02.375Z,612.00
2024-01-19T05:28:02.323Z,615.00
2024-01-19T05:29:02.297Z,614.00
2024-01-19T05:30:02.394Z,614.00
2024-01-19T05:31:02.320Z,606.00
2024-01-19T05:32:02.305Z,615.00
2024-01-19T05:33:02.460Z,613.00
2024-01-19T05:34:02.452Z,615.00
2024-01-19T05:35:02.314Z,616.00
2024-01-19T05:36:02.369Z,608.00
2024-01-19T05:37:02.308Z,613.00
2024-01-19T05:38:02.311Z,611.00
2024-01-19T05:39:02.355Z,609.00
2024-01-19T05:40:02.328Z,615.00
2024-01-19T05:41:02.455Z,609.00
2024-01-19T05:42:02.369Z,612.00
2024-01-19T05:43:02.322Z,612.00
2024-01-19T05:44:02.311Z,610.00
2024-01-19T05:45:02.384Z,607.00
2024-01-19T05:46:02.315Z,609.00
2024-01-19T05:47:02.333Z,606.00
2024-01-19T05:48:02.434Z,607.00
2024-01-19T05:49:02.348Z,607.00
2024-01-19T05:50:02.349Z,604.00
2024-01-19T05:51:02.392Z,611.00
2024-01-19T05:52:02.323Z,607.00
2024-01-19T05:53:02.341Z,612.00
2024-01-19T05:54:02.344Z,600.00
2024-01-19T05:55:02.338Z,607.00
2024-01-19T05:56:02.396Z,610.00
2024-01-19T05:57:02.397Z,612.00
2024-01-19T05:58:02.441Z,609.00
2024-01-19T05:59:02.370Z,609.00
2024-01-19T06:00:02.402Z,604.00
2024-01-19T06:01:02.362Z,611.00
2024-01-19T06:02:02.364Z,604.00
2024-01-19T06:03:02.373Z,610.00
2024-01-19T06:04:02.435Z,611.00
2024-01-19T06:05:02.374Z,606.00
2024-01-19T06:06:02.463Z,604.00
2024-01-19T06:07:02.363Z,609.00
2024-01-19T06:08:02.353Z,603.00
2024-01-19T06:09:02.368Z,609.00
2024-01-19T06:10:02.381Z,607.00
2024-01-19T06:11:02.348Z,609.00
2024-01-19T06:12:02.397Z,608.00
2024-01-19T06:13:02.372Z,611.00
2024-01-19T06:14:02.361Z,613.00
2024-01-19T06:15:02.508Z,609.00
2024-01-19T06:16:02.393Z,610.00
2024-01-19T06:17:02.392Z,609.00
2024-01-19T06:18:02.421Z,614.00
2024-01-19T06:19:02.525Z,606.00
2024-01-19T06:20:02.364Z,600.00
2024-01-19T06:21:02.488Z,619.00
2024-01-19T06:22:02.367Z,615.00
2024-01-19T06:23:02.388Z,614.00
2024-01-19T06:24:02.427Z,614.00
2024-01-19T06:25:02.371Z,607.00
2024-01-19T06:26:02.489Z,615.00
2024-01-19T06:27:02.378Z,608.00
2024-01-19T06:28:02.381Z,618.00
2024-01-19T06:29:02.417Z,614.00
2024-01-19T06:31:02.424Z,603.00
2024-01-19T06:32:02.407Z,609.00
2024-01-19T06:33:02.503Z,605.00
2024-01-19T06:34:02.453Z,615.00
2024-01-19T06:35:02.416Z,613.00
2024-01-19T06:36:02.524Z,605.00
2024-01-19T06:37:02.463Z,600.00
2024-01-19T06:38:02.454Z,600.00
2024-01-19T06:39:02.599Z,606.00
2024-01-19T06:40:02.397Z,609.00
2024-01-19T06:41:02.486Z,600.00
2024-01-19T06:42:03.044Z,605.00
2024-01-19T06:43:02.522Z,606.00
2024-01-19T06:44:02.709Z,604.00
2024-01-19T06:45:02.683Z,608.00
2024-01-19T06:46:02.656Z,610.00
2024-01-19T06:47:02.721Z,608.00
2024-01-19T06:48:02.959Z,614.00
2024-01-19T06:49:02.843Z,620.00
2024-01-19T06:50:02.821Z,615.00
2024-01-19T06:51:03.024Z,614.00
2024-01-19T06:52:02.876Z,609.00
2024-01-19T06:53:02.894Z,615.00
2024-01-19T06:54:02.973Z,618.00
2024-01-19T06:55:03.110Z,622.00
2024-01-19T06:56:09.157Z,625.00
2024-01-19T06:57:04.610Z,625.00
2024-01-19T06:58:02.978Z,626.00
2024-01-19T06:59:02.972Z,626.00
2024-01-19T07:00:03.074Z,627.00
2024-01-19T07:01:03.062Z,626.00
2024-01-19T07:02:03.455Z,632.00
2024-01-19T07:03:03.122Z,630.00
2024-01-19T07:04:02.996Z,629.00
2024-01-19T07:05:02.991Z,635.00
2024-01-19T07:06:03.086Z,633.00
2024-01-19T07:07:03.082Z,637.00
2024-01-19T07:08:03.094Z,642.00
2024-01-19T07:09:03.240Z,635.00
2024-01-19T07:10:03.250Z,633.00
2024-01-19T07:11:03.274Z,636.00
2024-01-19T07:12:03.502Z,638.00
2024-01-19T07:13:03.412Z,640.00
2024-01-19T07:14:03.470Z,642.00
2024-01-19T07:15:03.762Z,640.00
2024-01-19T07:16:03.626Z,642.00
2024-01-19T07:17:03.724Z,640.00
2024-01-19T07:18:03.894Z,643.00
2024-01-19T07:19:03.969Z,648.00
2024-01-19T07:20:03.911Z,645.00
2024-01-19T07:21:04.002Z,646.00
2024-01-19T07:22:04.017Z,634.00
2024-01-19T07:23:04.103Z,641.00
2024-01-19T07:24:04.152Z,644.00
2024-01-19T07:25:04.219Z,634.00
2024-01-19T07:26:04.325Z,643.00
2024-01-19T07:27:04.389Z,636.00
2024-01-19T07:28:04.430Z,643.00
2024-01-19T07:29:04.594Z,642.00
2024-01-19T07:30:04.718Z,642.00
2024-01-19T07:31:04.650Z,642.00
2024-01-19T07:32:04.742Z,645.00
2024-01-19T07:33:09.059Z,641.00
2024-01-19T07:34:06.101Z,641.00
2024-01-19T07:35:04.876Z,642.00
2024-01-19T07:36:04.868Z,641.00
2024-01-19T07:37:04.911Z,644.00
2024-01-19T07:38:04.984Z,642.00
2024-01-19T07:39:04.896Z,630.00
2024-01-19T07:40:04.805Z,627.00
2024-01-19T07:41:05.500Z,622.00
2024-01-19T07:42:04.991Z,613.00
2024-01-19T07:43:04.996Z,610.00
2024-01-19T07:44:05.032Z,613.00
2024-01-19T07:45:05.364Z,614.00
2024-01-19T07:46:05.164Z,627.00
2024-01-19T07:47:05.253Z,627.00
2024-01-19T07:48:05.297Z,630.00
2024-01-19T07:49:05.367Z,637.00
2024-01-19T07:50:05.340Z,645.00
2024-01-19T07:51:05.388Z,650.00
2024-01-19T07:52:05.436Z,645.00
2024-01-19T07:53:05.434Z,655.00
2024-01-19T07:54:05.482Z,655.00
2024-01-19T07:55:05.520Z,664.00
2024-01-19T07:56:05.540Z,675.00
2024-01-19T07:57:05.647Z,669.00
2024-01-19T07:58:05.645Z,677.00
2024-01-19T07:59:05.608Z,691.00
2024-01-19T08:00:05.625Z,711.00
2024-01-19T08:01:05.660Z,697.00
2024-01-19T08:02:07.800Z,727.00
2024-01-19T08:03:05.740Z,731.00
2024-01-19T08:04:05.734Z,746.00
2024-01-19T08:05:05.624Z,746.00
2024-01-19T08:06:05.767Z,757.00
2024-01-19T08:07:05.697Z,766.00
2024-01-19T08:08:05.642Z,777.00
2024-01-19T08:09:05.698Z,789.00
2024-01-19T08:10:05.659Z,806.00
2024-01-19T08:11:05.680Z,813.00
2024-01-19T08:12:05.711Z,816.00
2024-01-19T08:13:05.728Z,828.00
2024-01-19T08:14:05.722Z,845.00
2024-01-19T08:15:05.766Z,853.00
2024-01-19T08:16:05.796Z,881.00
2024-01-19T08:17:05.803Z,868.00
2024-01-19T08:18:05.893Z,885.00
2024-01-19T08:19:06.067Z,893.00
2024-01-19T08:20:05.911Z,895.00
2024-01-19T08:21:06.039Z,894.00
2024-01-19T08:22:05.963Z,893.00
2024-01-19T08:23:05.849Z,923.00
2024-01-19T08:24:05.941Z,913.00
2024-01-19T08:25:05.911Z,915.00
2024-01-19T08:26:06.057Z,912.00
2024-01-19T08:27:06.059Z,923.00
2024-01-19T08:28:06.162Z,917.00
2024-01-19T08:29:06.163Z,929.00
2024-01-19T08:30:06.306Z,937.00
2024-01-19T08:31:06.300Z,936.00
2024-01-19T08:32:06.466Z,944.00
2024-01-19T08:33:06.556Z,940.00
2024-01-19T08:34:06.527Z,938.00
2024-01-19T08:35:06.667Z,947.00
2024-01-19T08:36:06.713Z,943.00
2024-01-19T08:37:06.702Z,949.00
2024-01-19T08:38:06.814Z,947.00
2024-01-19T08:39:06.904Z,955.00
2024-01-19T08:40:06.907Z,949.00
2024-01-19T08:41:07.011Z,945.00
2024-01-19T08:42:07.511Z,943.00
2024-01-19T08:43:07.087Z,943.00
2024-01-19T08:44:07.196Z,948.00
2024-01-19T08:45:07.278Z,945.00
2024-01-19T08:46:07.994Z,936.00
2024-01-19T08:47:07.353Z,933.00
2024-01-19T08:48:07.594Z,938.00
2024-01-19T08:49:07.544Z,923.00
2024-01-19T08:50:07.508Z,928.00
2024-01-19T08:51:07.594Z,925.00
2024-01-19T08:52:08.019Z,918.00
2024-01-19T08:53:07.697Z,924.00
2024-01-19T08:54:07.793Z,918.00
2024-01-19T08:55:07.822Z,905.00
2024-01-19T08:56:07.869Z,881.00
2024-01-19T08:57:08.001Z,873.00
2024-01-19T08:58:08.013Z,860.00
2024-01-19T08:59:08.048Z,855.00
2024-01-19T09:00:08.155Z,848.00
2024-01-19T09:01:08.176Z,846.00
2024-01-19T09:02:08.482Z,842.00
2024-01-19T09:03:08.339Z,849.00
2024-01-19T09:04:08.510Z,851.00
2024-01-19T09:05:08.455Z,849.00
2024-01-19T09:06:09.235Z,852.00
2024-01-19T09:07:08.587Z,865.00
2024-01-19T09:08:08.510Z,855.00
2024-01-19T09:09:08.561Z,863.00
2024-01-19T09:10:08.605Z,865.00
2024-01-19T09:11:08.680Z,869.00
2024-01-19T09:12:08.729Z,876.00
2024-01-19T09:13:08.768Z,889.00
2024-01-19T09:14:10.739Z,893.00
2024-01-19T09:15:09.002Z,905.00
2024-01-19T09:16:08.818Z,901.00
2024-01-19T09:17:08.774Z,910.00
2024-01-19T09:18:08.957Z,908.00
2024-01-19T09:19:08.881Z,906.00
2024-01-19T09:20:08.840Z,919.00
2024-01-19T09:21:08.810Z,917.00
2024-01-19T09:22:08.792Z,925.00
2024-01-19T09:23:09.477Z,935.00
2024-01-19T09:24:08.843Z,940.00
2024-01-19T09:25:08.983Z,927.00
2024-01-19T09:26:08.797Z,923.00
2024-01-19T09:27:08.860Z,914.00
2024-01-19T09:28:08.801Z,919.00
2024-01-19T09:29:08.853Z,912.00
2024-01-19T09:30:08.803Z,922.00
2024-01-19T09:31:08.903Z,913.00
2024-01-19T09:32:09.001Z,914.00
2024-01-19T09:33:08.886Z,912.00
2024-01-19T09:34:08.858Z,914.00
2024-01-19T09:35:08.799Z,910.00
2024-01-19T09:36:08.848Z,910.00
2024-01-19T09:37:08.792Z,903.00
2024-01-19T09:38:08.804Z,902.00
2024-01-19T09:39:08.869Z,902.00
2024-01-19T09:40:09.004Z,904.00
2024-01-19T09:41:08.813Z,905.00
2024-01-19T09:42:08.884Z,896.00
2024-01-19T09:43:08.793Z,860.00
2024-01-19T09:44:08.819Z,853.00
2024-01-19T09:45:09.169Z,868.00
2024-01-19T09:46:08.811Z,881.00
2024-01-19T09:47:08.812Z,884.00
2024-01-19T09:48:08.890Z,891.00
2024-01-19T09:49:08.863Z,896.00
2024-01-19T09:50:08.802Z,905.00
2024-01-19T09:51:08.833Z,921.00
2024-01-19T09:52:08.987Z,933.00
2024-01-19T09:53:08.813Z,938.00
2024-01-19T09:54:08.865Z,953.00
2024-01-19T09:55:08.999Z,962.00
2024-01-19T09:56:08.807Z,976.00
2024-01-19T09:57:08.880Z,989.00
2024-01-19T09:58:08.880Z,998.00
2024-01-19T09:59:08.836Z,1005.00
2024-01-19T10:00:08.905Z,1023.00
2024-01-19T10:01:08.928Z,1016.00
2024-01-19T10:02:08.981Z,1038.00
2024-01-19T10:03:09.027Z,1047.00
2024-01-19T10:04:09.087Z,1059.00
2024-01-19T10:05:09.121Z,1057.00
2024-01-19T10:06:09.257Z,1067.00
2024-01-19T10:07:09.170Z,1085.00
2024-01-19T10:08:11.746Z,1082.00
2024-01-19T10:09:09.238Z,1098.00
2024-01-19T10:10:09.205Z,1095.00
2024-01-19T10:11:09.252Z,1117.00
2024-01-19T10:12:09.245Z,1113.00
2024-01-19T10:13:09.191Z,1123.00
2024-01-19T10:14:09.213Z,1123.00
2024-01-19T10:15:09.253Z,1148.00
2024-01-19T10:16:09.228Z,1143.00
2024-01-19T10:17:09.495Z,1151.00
2024-01-19T10:18:09.289Z,1167.00
2024-01-19T10:19:09.263Z,1177.00
2024-01-19T10:20:09.217Z,1209.00
2024-01-19T10:21:09.363Z,1212.00
2024-01-19T10:22:10.527Z,1226.00
2024-01-19T10:23:09.226Z,1234.00
2024-01-19T10:24:09.293Z,1236.00
2024-01-19T10:25:09.241Z,1244.00
2024-01-19T10:26:09.260Z,1241.00
2024-01-19T10:27:09.292Z,1239.00
2024-01-19T10:28:09.215Z,1229.00
2024-01-19T10:29:09.211Z,1211.00
2024-01-19T10:30:09.249Z,1173.00
2024-01-19T10:31:09.238Z,1142.00
2024-01-19T10:32:09.235Z,1155.00
2024-01-19T10:33:09.328Z,1140.00
2024-01-19T10:34:09.380Z,1138.00
2024-01-19T10:35:09.285Z,1117.00
2024-01-19T10:36:09.366Z,992.00
2024-01-19T10:37:09.512Z,877.00
2024-01-19T10:38:09.403Z,767.00
2024-01-19T10:39:09.252Z,755.00
2024-01-19T10:40:09.265Z,768.00
2024-01-19T10:41:09.227Z,765.00
2024-01-19T10:42:09.722Z,730.00
2024-01-19T10:43:09.255Z,718.00
2024-01-19T10:44:09.272Z,712.00
2024-01-19T10:45:09.279Z,708.00
2024-01-19T10:46:09.309Z,673.00
2024-01-19T10:47:09.673Z,661.00
2024-01-19T10:48:09.342Z,654.00
2024-01-19T10:49:09.432Z,650.00
2024-01-19T10:50:09.378Z,647.00
2024-01-19T10:51:09.410Z,647.00
2024-01-19T10:52:09.467Z,650.00
2024-01-19T10:53:09.553Z,644.00
2024-01-19T10:54:09.645Z,632.00
2024-01-19T10:55:09.693Z,618.00
2024-01-19T10:56:09.832Z,616.00
2024-01-19T10:57:09.960Z,607.00
2024-01-19T10:58:09.905Z,604.00
2024-01-19T10:59:09.959Z,600.00
2024-01-19T11:00:10.082Z,603.00
2024-01-19T11:01:10.217Z,605.00
2024-01-19T11:02:10.270Z,607.00
2024-01-19T11:03:10.441Z,607.00
2024-01-19T11:04:10.342Z,615.00
2024-01-19T11:05:10.338Z,614.00
2024-01-19T11:06:10.449Z,614.00
2024-01-19T11:07:10.539Z,616.00
2024-01-19T11:08:10.519Z,621.00
2024-01-19T11:09:10.607Z,623.00
2024-01-19T11:10:10.576Z,623.00
2024-01-19T11:11:10.607Z,623.00
2024-01-19T11:12:10.771Z,626.00
2024-01-19T11:13:10.719Z,632.00
2024-01-19T11:14:10.763Z,637.00
2024-01-19T11:15:10.903Z,639.00
2024-01-19T11:16:10.849Z,645.00
2024-01-19T11:17:10.945Z,648.00
2024-01-19T11:18:11.034Z,651.00
2024-01-19T11:19:11.133Z,652.00
2024-01-19T11:20:11.050Z,656.00
2024-01-19T11:21:11.140Z,657.00
2024-01-19T11:22:11.135Z,658.00
2024-01-19T11:23:11.146Z,663.00
2024-01-19T11:24:11.207Z,679.00
2024-01-19T11:25:11.239Z,677.00
2024-01-19T11:26:11.321Z,683.00
2024-01-19T11:27:11.334Z,689.00
2024-01-19T11:28:11.367Z,690.00
2024-01-19T11:29:16.929Z,683.00
2024-01-19T11:30:12.449Z,685.00
2024-01-19T11:31:12.100Z,689.00
2024-01-19T11:32:11.437Z,697.00
2024-01-19T11:33:11.507Z,716.00
2024-01-19T11:34:11.538Z,745.00
2024-01-19T11:35:11.444Z,761.00
2024-01-19T11:36:11.530Z,748.00
2024-01-19T11:37:11.623Z,771.00
2024-01-19T11:38:11.432Z,772.00
2024-01-19T11:39:12.064Z,778.00
2024-01-19T11:40:11.434Z,766.00
2024-01-19T11:41:11.479Z,779.00
2024-01-19T11:42:11.698Z,791.00
2024-01-19T11:43:11.581Z,792.00
2024-01-19T11:44:11.650Z,787.00
2024-01-19T11:45:11.823Z,784.00
2024-01-19T11:46:11.829Z,768.00
2024-01-19T11:47:11.828Z,768.00
2024-01-19T11:48:12.001Z,776.00
2024-01-19T11:49:11.945Z,762.00
2024-01-19T11:50:12.036Z,763.00
2024-01-19T11:51:12.090Z,750.00
2024-01-19T11:52:12.195Z,735.00
2024-01-19T11:53:12.192Z,739.00
2024-01-19T11:54:12.282Z,727.00
2024-01-19T11:55:12.494Z,715.00
2024-01-19T11:56:12.386Z,708.00
2024-01-19T11:57:12.437Z,693.00
2024-01-19T11:58:12.490Z,689.00
2024-01-19T11:59:12.556Z,675.00
2024-01-19T12:00:12.682Z,687.00
2024-01-19T12:01:12.691Z,688.00
2024-01-19T12:02:13.484Z,667.00
2024-01-19T12:03:12.764Z,661.00
2024-01-19T12:04:12.821Z,664.00
2024-01-19T12:05:13.703Z,662.00
2024-01-19T12:06:12.985Z,666.00
2024-01-19T12:07:12.990Z,667.00
2024-01-19T12:08:13.120Z,664.00
2024-01-19T12:09:13.153Z,657.00
2024-01-19T12:10:13.158Z,649.00
2024-01-19T12:11:13.188Z,639.00
2024-01-19T12:12:13.362Z,634.00
2024-01-19T12:13:13.364Z,629.00
2024-01-19T12:14:13.375Z,631.00
2024-01-19T12:15:13.457Z,626.00
2024-01-19T12:16:13.483Z,628.00
2024-01-19T12:17:13.540Z,619.00
2024-01-19T12:18:13.577Z,614.00
2024-01-19T12:19:13.666Z,610.00
2024-01-19T12:20:13.656Z,605.00
2024-01-19T12:21:13.680Z,604.00
2024-01-19T12:22:13.770Z,601.00
2024-01-19T12:23:13.743Z,605.00
2024-01-19T12:24:13.783Z,604.00
2024-01-19T12:25:13.848Z,607.00
2024-01-19T12:26:13.870Z,608.00
2024-01-19T12:27:13.908Z,609.00
2024-01-19T12:28:13.949Z,607.00
2024-01-19T12:29:13.999Z,605.00